Arnprior, Canada
Current Conditions -  °F | °C
As of 11:00 AM on Thursday 23 Oct 2014 (Local Time) from CYOW Reporting Station
Scattered Clouds Scattered Clouds  
Wind Chill: 54°   Ceiling: Unl
Heat Index: 54°   Visibility: 15mi
Dew Point: 39°   Wind: 17mph
Humidity: 58%   Direction: 30°NNE
Pressure: 30.09"   Gusts: 24mph
Location:  45.43°N, 76.37°W
Report Text: CYOW 231500Z 03015G21KT 15SM FEW025 SCT070 12/04 A3009 RMK SC1AC2 SLP193
Loading
Personal Weather Stations






























Interactive Weather Map
Tropical Storm Tracking
New forecast layout! Learn more

10-Day Weather Forecast

Advertisements
Track Severe Weather on mobile